sensor_id;sensor_type;location;lat;lon;timestamp;P1;durP1;ratioP1;P2;durP2;ratioP2
37477;SDS011;23334;54.316;10.182;2024-03-02T00:00:36;30.90;;;16.77;;
37477;SDS011;23334;54.316;10.182;2024-03-02T00:03:03;34.07;;;16.70;;
37477;SDS011;23334;54.316;10.182;2024-03-02T00:05:29;35.23;;;16.83;;
37477;SDS011;23334;54.316;10.182;2024-03-02T00:07:56;31.53;;;17.03;;
37477;SDS011;23334;54.316;10.182;2024-03-02T00:10:25;27.87;;;15.80;;
37477;SDS011;23334;54.316;10.182;2024-03-02T00:12:54;40.77;;;17.87;;
37477;SDS011;23334;54.316;10.182;2024-03-02T00:18:12;37.73;;;17.53;;
37477;SDS011;23334;54.316;10.182;2024-03-02T00:20:39;34.47;;;16.10;;
37477;SDS011;23334;54.316;10.182;2024-03-02T00:23:06;30.87;;;16.37;;
37477;SDS011;23334;54.316;10.182;2024-03-02T00:25:51;36.57;;;17.60;;
37477;SDS011;23334;54.316;10.182;2024-03-02T00:28:21;33.93;;;15.30;;
37477;SDS011;23334;54.316;10.182;2024-03-02T00:30:51;35.00;;;16.03;;
37477;SDS011;23334;54.316;10.182;2024-03-02T00:33:27;34.57;;;16.17;;
37477;SDS011;23334;54.316;10.182;2024-03-02T00:35:53;27.93;;;14.93;;
37477;SDS011;23334;54.316;10.182;2024-03-02T00:38:20;36.87;;;16.40;;
37477;SDS011;23334;54.316;10.182;2024-03-02T00:40:45;42.13;;;17.67;;
37477;SDS011;23334;54.316;10.182;2024-03-02T00:43:19;30.97;;;16.33;;
37477;SDS011;23334;54.316;10.182;2024-03-02T00:46:06;36.50;;;16.27;;
37477;SDS011;23334;54.316;10.182;2024-03-02T00:48:32;31.87;;;16.80;;
37477;SDS011;23334;54.316;10.182;2024-03-02T00:51:01;34.87;;;17.10;;
37477;SDS011;23334;54.316;10.182;2024-03-02T00:53:28;34.57;;;16.50;;
37477;SDS011;23334;54.316;10.182;2024-03-02T00:55:55;33.00;;;17.33;;
37477;SDS011;23334;54.316;10.182;2024-03-02T00:58:21;28.70;;;17.13;;
37477;SDS011;23334;54.316;10.182;2024-03-02T01:00:47;30.87;;;17.00;;
37477;SDS011;23334;54.316;10.182;2024-03-02T01:03:13;30.97;;;14.90;;
37477;SDS011;23334;54.316;10.182;2024-03-02T01:05:43;37.57;;;17.83;;
37477;SDS011;23334;54.316;10.182;2024-03-02T01:08:09;37.07;;;15.67;;
37477;SDS011;23334;54.316;10.182;2024-03-02T01:10:35;35.53;;;17.67;;
37477;SDS011;23334;54.316;10.182;2024-03-02T01:13:01;37.80;;;17.00;;
37477;SDS011;23334;54.316;10.182;2024-03-02T01:15:27;34.23;;;16.63;;
37477;SDS011;23334;54.316;10.182;2024-03-02T01:17:53;37.23;;;15.83;;
37477;SDS011;23334;54.316;10.182;2024-03-02T01:20:19;34.13;;;17.00;;
37477;SDS011;23334;54.316;10.182;2024-03-02T01:22:45;36.27;;;17.13;;
37477;SDS011;23334;54.316;10.182;2024-03-02T01:25:12;29.10;;;16.13;;
37477;SDS011;23334;54.316;10.182;2024-03-02T01:27:38;32.57;;;17.20;;
37477;SDS011;23334;54.316;10.182;2024-03-02T01:30:04;40.23;;;18.53;;
37477;SDS011;23334;54.316;10.182;2024-03-02T01:32:30;34.40;;;16.10;;
37477;SDS011;23334;54.316;10.182;2024-03-02T01:34:56;38.20;;;17.30;;
37477;SDS011;23334;54.316;10.182;2024-03-02T01:37:22;30.27;;;16.70;;
37477;SDS011;23334;54.316;10.182;2024-03-02T01:39:47;36.00;;;17.20;;
37477;SDS011;23334;54.316;10.182;2024-03-02T01:42:13;36.63;;;17.93;;
37477;SDS011;23334;54.316;10.182;2024-03-02T01:44:40;30.07;;;17.33;;
37477;SDS011;23334;54.316;10.182;2024-03-02T01:47:06;38.60;;;17.77;;
37477;SDS011;23334;54.316;10.182;2024-03-02T01:49:32;35.60;;;17.70;;
37477;SDS011;23334;54.316;10.182;2024-03-02T01:51:59;32.53;;;16.97;;
37477;SDS011;23334;54.316;10.182;2024-03-02T01:54:24;35.13;;;17.90;;
37477;SDS011;23334;54.316;10.182;2024-03-02T01:56:50;36.30;;;18.07;;
37477;SDS011;23334;54.316;10.182;2024-03-02T01:59:16;32.90;;;17.10;;
37477;SDS011;23334;54.316;10.182;2024-03-02T02:01:42;36.60;;;17.10;;
37477;SDS011;23334;54.316;10.182;2024-03-02T02:04:08;38.93;;;18.00;;
37477;SDS011;23334;54.316;10.182;2024-03-02T02:06:33;33.37;;;17.07;;
37477;SDS011;23334;54.316;10.182;2024-03-02T02:09:00;30.53;;;16.60;;
37477;SDS011;23334;54.316;10.182;2024-03-02T02:11:26;32.10;;;17.37;;
37477;SDS011;23334;54.316;10.182;2024-03-02T02:13:52;33.57;;;16.67;;
37477;SDS011;23334;54.316;10.182;2024-03-02T02:16:20;32.80;;;17.00;;
37477;SDS011;23334;54.316;10.182;2024-03-02T02:18:46;36.60;;;17.67;;
37477;SDS011;23334;54.316;10.182;2024-03-02T02:21:12;32.37;;;17.40;;
37477;SDS011;23334;54.316;10.182;2024-03-02T02:23:38;37.47;;;19.10;;
37477;SDS011;23334;54.316;10.182;2024-03-02T02:26:04;35.77;;;18.60;;
37477;SDS011;23334;54.316;10.182;2024-03-02T02:28:31;40.23;;;18.77;;
37477;SDS011;23334;54.316;10.182;2024-03-02T02:30:56;38.97;;;18.60;;
37477;SDS011;23334;54.316;10.182;2024-03-02T02:33:25;38.37;;;19.03;;
37477;SDS011;23334;54.316;10.182;2024-03-02T02:35:50;37.83;;;18.50;;
37477;SDS011;23334;54.316;10.182;2024-03-02T02:38:16;34.97;;;18.20;;
37477;SDS011;23334;54.316;10.182;2024-03-02T02:40:42;36.53;;;17.70;;
37477;SDS011;23334;54.316;10.182;2024-03-02T02:43:08;32.40;;;17.53;;
37477;SDS011;23334;54.316;10.182;2024-03-02T02:45:34;34.77;;;18.37;;
37477;SDS011;23334;54.316;10.182;2024-03-02T02:48:00;35.77;;;16.93;;
37477;SDS011;23334;54.316;10.182;2024-03-02T02:50:27;33.20;;;17.27;;
37477;SDS011;23334;54.316;10.182;2024-03-02T02:52:53;31.00;;;18.00;;
37477;SDS011;23334;54.316;10.182;2024-03-02T02:55:18;36.37;;;18.00;;
37477;SDS011;23334;54.316;10.182;2024-03-02T02:57:44;37.17;;;19.13;;
37477;SDS011;23334;54.316;10.182;2024-03-02T03:00:12;37.17;;;18.47;;
37477;SDS011;23334;54.316;10.182;2024-03-02T03:02:44;40.07;;;19.63;;
37477;SDS011;23334;54.316;10.182;2024-03-02T03:05:10;36.87;;;18.13;;
37477;SDS011;23334;54.316;10.182;2024-03-02T03:07:39;44.30;;;18.33;;
37477;SDS011;23334;54.316;10.182;2024-03-02T03:10:05;41.13;;;19.53;;
37477;SDS011;23334;54.316;10.182;2024-03-02T03:12:32;39.47;;;17.70;;
37477;SDS011;23334;54.316;10.182;2024-03-02T03:14:58;43.23;;;19.50;;
37477;SDS011;23334;54.316;10.182;2024-03-02T03:17:24;37.10;;;18.70;;
37477;SDS011;23334;54.316;10.182;2024-03-02T03:19:51;39.30;;;18.17;;
37477;SDS011;23334;54.316;10.182;2024-03-02T03:22:16;42.03;;;19.50;;
37477;SDS011;23334;54.316;10.182;2024-03-02T03:24:42;40.50;;;19.90;;
37477;SDS011;23334;54.316;10.182;2024-03-02T03:27:09;40.27;;;20.63;;
37477;SDS011;23334;54.316;10.182;2024-03-02T03:29:36;37.57;;;18.40;;
37477;SDS011;23334;54.316;10.182;2024-03-02T03:32:01;38.10;;;19.33;;
37477;SDS011;23334;54.316;10.182;2024-03-02T03:34:27;36.87;;;19.37;;
37477;SDS011;23334;54.316;10.182;2024-03-02T03:36:54;35.93;;;18.93;;
37477;SDS011;23334;54.316;10.182;2024-03-02T03:39:19;45.60;;;20.37;;
37477;SDS011;23334;54.316;10.182;2024-03-02T03:41:45;37.23;;;18.93;;
37477;SDS011;23334;54.316;10.182;2024-03-02T03:44:11;37.37;;;20.07;;
37477;SDS011;23334;54.316;10.182;2024-03-02T03:46:37;44.40;;;20.77;;
37477;SDS011;23334;54.316;10.182;2024-03-02T03:49:03;40.50;;;20.70;;
37477;SDS011;23334;54.316;10.182;2024-03-02T03:51:30;39.57;;;18.80;;
37477;SDS011;23334;54.316;10.182;2024-03-02T03:53:56;38.37;;;18.10;;
37477;SDS011;23334;54.316;10.182;2024-03-02T03:56:21;34.93;;;18.37;;
37477;SDS011;23334;54.316;10.182;2024-03-02T03:58:47;38.07;;;19.70;;
37477;SDS011;23334;54.316;10.182;2024-03-02T04:01:13;40.20;;;20.17;;
37477;SDS011;23334;54.316;10.182;2024-03-02T04:03:39;36.93;;;18.00;;
37477;SDS011;23334;54.316;10.182;2024-03-02T04:06:05;38.13;;;19.50;;
37477;SDS011;23334;54.316;10.182;2024-03-02T04:08:31;39.90;;;20.20;;
37477;SDS011;23334;54.316;10.182;2024-03-02T04:10:58;36.17;;;18.73;;
37477;SDS011;23334;54.316;10.182;2024-03-02T04:13:24;37.17;;;19.13;;
37477;SDS011;23334;54.316;10.182;2024-03-02T04:15:50;39.63;;;18.87;;
37477;SDS011;23334;54.316;10.182;2024-03-02T04:18:15;37.37;;;19.53;;
37477;SDS011;23334;54.316;10.182;2024-03-02T04:20:41;38.87;;;19.80;;
37477;SDS011;23334;54.316;10.182;2024-03-02T04:23:07;47.90;;;20.00;;
37477;SDS011;23334;54.316;10.182;2024-03-02T04:25:33;39.17;;;19.73;;
37477;SDS011;23334;54.316;10.182;2024-03-02T04:27:59;45.90;;;20.17;;
37477;SDS011;23334;54.316;10.182;2024-03-02T04:30:25;40.67;;;20.10;;
37477;SDS011;23334;54.316;10.182;2024-03-02T04:32:51;42.20;;;20.87;;
37477;SDS011;23334;54.316;10.182;2024-03-02T04:35:17;38.60;;;19.17;;
37477;SDS011;23334;54.316;10.182;2024-03-02T04:37:43;39.70;;;18.20;;
37477;SDS011;23334;54.316;10.182;2024-03-02T04:40:09;35.73;;;19.07;;
37477;SDS011;23334;54.316;10.182;2024-03-02T04:42:36;33.50;;;18.20;;
37477;SDS011;23334;54.316;10.182;2024-03-02T04:45:02;39.37;;;19.63;;
37477;SDS011;23334;54.316;10.182;2024-03-02T04:47:28;44.00;;;20.27;;
37477;SDS011;23334;54.316;10.182;2024-03-02T04:49:53;39.90;;;20.90;;
37477;SDS011;23334;54.316;10.182;2024-03-02T04:52:19;40.77;;;19.07;;
37477;SDS011;23334;54.316;10.182;2024-03-02T04:54:45;46.60;;;20.00;;
37477;SDS011;23334;54.316;10.182;2024-03-02T04:57:31;35.97;;;18.37;;
37477;SDS011;23334;54.316;10.182;2024-03-02T04:59:57;38.07;;;19.63;;
37477;SDS011;23334;54.316;10.182;2024-03-02T05:02:23;36.03;;;19.17;;
37477;SDS011;23334;54.316;10.182;2024-03-02T05:04:49;41.03;;;20.07;;
37477;SDS011;23334;54.316;10.182;2024-03-02T05:07:15;40.93;;;19.27;;
37477;SDS011;23334;54.316;10.182;2024-03-02T05:09:41;34.73;;;19.13;;
37477;SDS011;23334;54.316;10.182;2024-03-02T05:12:07;35.53;;;20.20;;
37477;SDS011;23334;54.316;10.182;2024-03-02T05:15:02;42.27;;;19.30;;
37477;SDS011;23334;54.316;10.182;2024-03-02T05:17:28;37.17;;;18.57;;
37477;SDS011;23334;54.316;10.182;2024-03-02T05:19:54;40.17;;;20.03;;
37477;SDS011;23334;54.316;10.182;2024-03-02T05:22:21;38.20;;;19.60;;
37477;SDS011;23334;54.316;10.182;2024-03-02T05:24:47;34.93;;;18.93;;
37477;SDS011;23334;54.316;10.182;2024-03-02T05:27:12;42.53;;;20.83;;
37477;SDS011;23334;54.316;10.182;2024-03-02T05:29:38;41.77;;;20.90;;
37477;SDS011;23334;54.316;10.182;2024-03-02T05:32:04;46.50;;;21.30;;
37477;SDS011;23334;54.316;10.182;2024-03-02T05:34:29;42.87;;;19.90;;
37477;SDS011;23334;54.316;10.182;2024-03-02T05:36:58;39.93;;;20.07;;
37477;SDS011;23334;54.316;10.182;2024-03-02T05:39:24;40.70;;;19.83;;
37477;SDS011;23334;54.316;10.182;2024-03-02T05:41:49;42.87;;;19.80;;
37477;SDS011;23334;54.316;10.182;2024-03-02T05:44:15;41.77;;;20.43;;
37477;SDS011;23334;54.316;10.182;2024-03-02T05:46:41;48.13;;;22.40;;
37477;SDS011;23334;54.316;10.182;2024-03-02T05:49:09;35.87;;;18.50;;
37477;SDS011;23334;54.316;10.182;2024-03-02T05:51:36;38.33;;;19.60;;
37477;SDS011;23334;54.316;10.182;2024-03-02T05:54:01;43.53;;;20.10;;
37477;SDS011;23334;54.316;10.182;2024-03-02T05:56:28;39.33;;;19.53;;
37477;SDS011;23334;54.316;10.182;2024-03-02T05:58:54;37.27;;;19.83;;
37477;SDS011;23334;54.316;10.182;2024-03-02T06:01:39;40.30;;;19.87;;
37477;SDS011;23334;54.316;10.182;2024-03-02T06:04:06;38.60;;;19.23;;
37477;SDS011;23334;54.316;10.182;2024-03-02T06:06:33;41.90;;;20.67;;
37477;SDS011;23334;54.316;10.182;2024-03-02T06:09:02;45.50;;;20.30;;
37477;SDS011;23334;54.316;10.182;2024-03-02T06:11:32;39.23;;;18.80;;
37477;SDS011;23334;54.316;10.182;2024-03-02T06:13:58;44.20;;;19.43;;
37477;SDS011;23334;54.316;10.182;2024-03-02T06:16:24;39.50;;;19.67;;
37477;SDS011;23334;54.316;10.182;2024-03-02T06:18:50;45.47;;;21.53;;
37477;SDS011;23334;54.316;10.182;2024-03-02T06:21:16;35.37;;;19.53;;
37477;SDS011;23334;54.316;10.182;2024-03-02T06:23:43;36.60;;;18.53;;
37477;SDS011;23334;54.316;10.182;2024-03-02T06:26:10;40.33;;;19.20;;
37477;SDS011;23334;54.316;10.182;2024-03-02T06:28:35;37.87;;;19.43;;
37477;SDS011;23334;54.316;10.182;2024-03-02T06:31:01;38.10;;;21.67;;
37477;SDS011;23334;54.316;10.182;2024-03-02T06:33:27;40.17;;;18.63;;
37477;SDS011;23334;54.316;10.182;2024-03-02T06:35:54;46.70;;;20.23;;
37477;SDS011;23334;54.316;10.182;2024-03-02T06:38:20;40.90;;;19.40;;
37477;SDS011;23334;54.316;10.182;2024-03-02T06:40:46;39.00;;;18.70;;
37477;SDS011;23334;54.316;10.182;2024-03-02T06:43:13;39.47;;;19.47;;
37477;SDS011;23334;54.316;10.182;2024-03-02T06:45:39;33.47;;;18.40;;
37477;SDS011;23334;54.316;10.182;2024-03-02T06:48:06;37.10;;;18.80;;
37477;SDS011;23334;54.316;10.182;2024-03-02T06:50:32;34.93;;;19.70;;
37477;SDS011;23334;54.316;10.182;2024-03-02T06:52:58;37.83;;;19.50;;
37477;SDS011;23334;54.316;10.182;2024-03-02T06:55:24;41.00;;;20.80;;
37477;SDS011;23334;54.316;10.182;2024-03-02T06:57:51;41.07;;;19.60;;
37477;SDS011;23334;54.316;10.182;2024-03-02T07:00:17;38.90;;;18.97;;
37477;SDS011;23334;54.316;10.182;2024-03-02T07:02:43;34.13;;;18.20;;
37477;SDS011;23334;54.316;10.182;2024-03-02T07:05:10;36.73;;;18.40;;
37477;SDS011;23334;54.316;10.182;2024-03-02T07:07:37;34.77;;;18.10;;
37477;SDS011;23334;54.316;10.182;2024-03-02T07:10:04;36.40;;;17.50;;
37477;SDS011;23334;54.316;10.182;2024-03-02T07:12:31;35.67;;;18.50;;
37477;SDS011;23334;54.316;10.182;2024-03-02T07:14:57;40.03;;;19.37;;
37477;SDS011;23334;54.316;10.182;2024-03-02T07:17:28;36.50;;;19.20;;
37477;SDS011;23334;54.316;10.182;2024-03-02T07:19:55;34.50;;;18.67;;
37477;SDS011;23334;54.316;10.182;2024-03-02T07:22:21;38.90;;;17.57;;
37477;SDS011;23334;54.316;10.182;2024-03-02T07:24:47;34.17;;;18.23;;
37477;SDS011;23334;54.316;10.182;2024-03-02T07:27:14;41.70;;;19.00;;
37477;SDS011;23334;54.316;10.182;2024-03-02T07:29:40;35.67;;;18.20;;
37477;SDS011;23334;54.316;10.182;2024-03-02T07:32:06;35.50;;;17.73;;
37477;SDS011;23334;54.316;10.182;2024-03-02T07:34:33;39.87;;;19.63;;
37477;SDS011;23334;54.316;10.182;2024-03-02T07:36:59;38.43;;;19.10;;
37477;SDS011;23334;54.316;10.182;2024-03-02T07:39:25;33.33;;;18.07;;
37477;SDS011;23334;54.316;10.182;2024-03-02T07:41:51;33.87;;;16.77;;
37477;SDS011;23334;54.316;10.182;2024-03-02T07:44:17;32.97;;;17.00;;
37477;SDS011;23334;54.316;10.182;2024-03-02T07:46:44;30.77;;;17.97;;
37477;SDS011;23334;54.316;10.182;2024-03-02T07:49:11;28.73;;;17.60;;
37477;SDS011;23334;54.316;10.182;2024-03-02T07:51:39;38.60;;;18.70;;
37477;SDS011;23334;54.316;10.182;2024-03-02T07:54:04;40.90;;;17.43;;
37477;SDS011;23334;54.316;10.182;2024-03-02T07:56:31;30.90;;;17.50;;
37477;SDS011;23334;54.316;10.182;2024-03-02T07:58:57;29.10;;;16.10;;
37477;SDS011;23334;54.316;10.182;2024-03-02T08:01:26;31.27;;;15.97;;
37477;SDS011;23334;54.316;10.182;2024-03-02T08:03:52;35.97;;;18.37;;
37477;SDS011;23334;54.316;10.182;2024-03-02T08:06:18;33.57;;;17.27;;
37477;SDS011;23334;54.316;10.182;2024-03-02T08:08:46;27.40;;;16.20;;
37477;SDS011;23334;54.316;10.182;2024-03-02T08:11:12;32.37;;;17.23;;
37477;SDS011;23334;54.316;10.182;2024-03-02T08:13:37;27.13;;;16.40;;
37477;SDS011;23334;54.316;10.182;2024-03-02T08:16:03;35.47;;;18.70;;
37477;SDS011;23334;54.316;10.182;2024-03-02T08:18:31;29.33;;;17.57;;
37477;SDS011;23334;54.316;10.182;2024-03-02T08:20:57;31.30;;;16.57;;
37477;SDS011;23334;54.316;10.182;2024-03-02T08:23:23;31.77;;;15.97;;
37477;SDS011;23334;54.316;10.182;2024-03-02T08:25:49;24.93;;;15.50;;
37477;SDS011;23334;54.316;10.182;2024-03-02T08:28:15;26.00;;;15.00;;
37477;SDS011;23334;54.316;10.182;2024-03-02T08:30:41;26.77;;;14.80;;
37477;SDS011;23334;54.316;10.182;2024-03-02T08:33:07;26.20;;;14.77;;
37477;SDS011;23334;54.316;10.182;2024-03-02T08:35:33;29.90;;;15.87;;
37477;SDS011;23334;54.316;10.182;2024-03-02T08:38:04;25.13;;;15.67;;
37477;SDS011;23334;54.316;10.182;2024-03-02T08:40:30;30.07;;;16.80;;
37477;SDS011;23334;54.316;10.182;2024-03-02T08:42:56;24.93;;;15.53;;
37477;SDS011;23334;54.316;10.182;2024-03-02T08:45:21;31.93;;;16.60;;
37477;SDS011;23334;54.316;10.182;2024-03-02T08:47:48;26.37;;;14.90;;
37477;SDS011;23334;54.316;10.182;2024-03-02T08:50:13;27.43;;;14.73;;
37477;SDS011;23334;54.316;10.182;2024-03-02T08:52:39;26.37;;;15.30;;
37477;SDS011;23334;54.316;10.182;2024-03-02T08:55:05;28.00;;;15.57;;
37477;SDS011;23334;54.316;10.182;2024-03-02T08:57:32;26.47;;;16.30;;
37477;SDS011;23334;54.316;10.182;2024-03-02T08:59:58;26.37;;;15.60;;
37477;SDS011;23334;54.316;10.182;2024-03-02T09:02:24;29.40;;;15.53;;
37477;SDS011;23334;54.316;10.182;2024-03-02T09:04:50;32.73;;;17.23;;
37477;SDS011;23334;54.316;10.182;2024-03-02T09:07:16;27.23;;;15.60;;
37477;SDS011;23334;54.316;10.182;2024-03-02T09:09:41;31.53;;;16.33;;
37477;SDS011;23334;54.316;10.182;2024-03-02T09:12:07;32.20;;;15.70;;
37477;SDS011;23334;54.316;10.182;2024-03-02T09:14:33;27.10;;;14.47;;
37477;SDS011;23334;54.316;10.182;2024-03-02T09:17:00;26.93;;;14.80;;
37477;SDS011;23334;54.316;10.182;2024-03-02T09:19:27;26.23;;;15.33;;
37477;SDS011;23334;54.316;10.182;2024-03-02T09:21:53;25.60;;;15.20;;
37477;SDS011;23334;54.316;10.182;2024-03-02T09:24:20;27.40;;;15.50;;
37477;SDS011;23334;54.316;10.182;2024-03-02T09:26:46;27.53;;;15.57;;
37477;SDS011;23334;54.316;10.182;2024-03-02T09:29:12;28.80;;;15.93;;
37477;SDS011;23334;54.316;10.182;2024-03-02T09:31:41;27.43;;;15.83;;
37477;SDS011;23334;54.316;10.182;2024-03-02T09:34:07;26.77;;;13.97;;
37477;SDS011;23334;54.316;10.182;2024-03-02T09:36:33;24.23;;;15.20;;
37477;SDS011;23334;54.316;10.182;2024-03-02T09:38:58;26.60;;;14.17;;
37477;SDS011;23334;54.316;10.182;2024-03-02T09:41:24;24.30;;;15.60;;
37477;SDS011;23334;54.316;10.182;2024-03-02T09:43:50;25.83;;;15.60;;
37477;SDS011;23334;54.316;10.182;2024-03-02T09:46:16;20.53;;;14.07;;
37477;SDS011;23334;54.316;10.182;2024-03-02T09:48:43;22.97;;;14.57;;
37477;SDS011;23334;54.316;10.182;2024-03-02T09:51:10;28.40;;;14.60;;
37477;SDS011;23334;54.316;10.182;2024-03-02T09:53:36;24.77;;;13.57;;
37477;SDS011;23334;54.316;10.182;2024-03-02T09:56:02;23.03;;;13.13;;
37477;SDS011;23334;54.316;10.182;2024-03-02T09:58:28;22.60;;;13.30;;
37477;SDS011;23334;54.316;10.182;2024-03-02T10:00:54;20.10;;;12.03;;
37477;SDS011;23334;54.316;10.182;2024-03-02T10:03:20;20.57;;;12.37;;
37477;SDS011;23334;54.316;10.182;2024-03-02T10:05:49;25.90;;;12.73;;
37477;SDS011;23334;54.316;10.182;2024-03-02T10:08:15;24.23;;;12.93;;
37477;SDS011;23334;54.316;10.182;2024-03-02T10:10:40;22.10;;;12.07;;
37477;SDS011;23334;54.316;10.182;2024-03-02T10:13:08;19.57;;;11.20;;
37477;SDS011;23334;54.316;10.182;2024-03-02T10:15:38;22.37;;;11.20;;
37477;SDS011;23334;54.316;10.182;2024-03-02T10:18:07;18.43;;;11.27;;
37477;SDS011;23334;54.316;10.182;2024-03-02T10:20:34;17.10;;;10.67;;
37477;SDS011;23334;54.316;10.182;2024-03-02T10:25:39;18.73;;;11.63;;
37477;SDS011;23334;54.316;10.182;2024-03-02T10:28:05;21.17;;;11.50;;
37477;SDS011;23334;54.316;10.182;2024-03-02T10:30:31;17.70;;;10.97;;
37477;SDS011;23334;54.316;10.182;2024-03-02T10:32:58;24.67;;;11.97;;
37477;SDS011;23334;54.316;10.182;2024-03-02T10:35:25;20.47;;;12.23;;
37477;SDS011;23334;54.316;10.182;2024-03-02T10:37:54;17.03;;;10.67;;
37477;SDS011;23334;54.316;10.182;2024-03-02T10:40:23;17.43;;;10.90;;
37477;SDS011;23334;54.316;10.182;2024-03-02T10:42:52;21.97;;;11.77;;
37477;SDS011;23334;54.316;10.182;2024-03-02T10:45:20;20.60;;;12.70;;
37477;SDS011;23334;54.316;10.182;2024-03-02T10:47:49;19.10;;;11.50;;
37477;SDS011;23334;54.316;10.182;2024-03-02T10:50:16;22.60;;;12.63;;
37477;SDS011;23334;54.316;10.182;2024-03-02T10:52:42;23.03;;;12.03;;
37477;SDS011;23334;54.316;10.182;2024-03-02T10:55:07;24.50;;;11.43;;
37477;SDS011;23334;54.316;10.182;2024-03-02T10:57:53;18.80;;;11.33;;
37477;SDS011;23334;54.316;10.182;2024-03-02T11:00:21;22.00;;;11.40;;
37477;SDS011;23334;54.316;10.182;2024-03-02T11:02:58;26.00;;;13.20;;
37477;SDS011;23334;54.316;10.182;2024-03-02T11:05:28;21.27;;;12.80;;
37477;SDS011;23334;54.316;10.182;2024-03-02T11:07:57;21.70;;;10.90;;
37477;SDS011;23334;54.316;10.182;2024-03-02T11:10:27;19.70;;;11.70;;
37477;SDS011;23334;54.316;10.182;2024-03-02T11:13:11;22.97;;;13.20;;
37477;SDS011;23334;54.316;10.182;2024-03-02T11:15:37;23.87;;;13.17;;
37477;SDS011;23334;54.316;10.182;2024-03-02T11:18:05;20.13;;;12.50;;
37477;SDS011;23334;54.316;10.182;2024-03-02T11:20:34;22.70;;;13.33;;
37477;SDS011;23334;54.316;10.182;2024-03-02T11:23:06;23.63;;;12.73;;
37477;SDS011;23334;54.316;10.182;2024-03-02T11:25:33;22.40;;;12.23;;
37477;SDS011;23334;54.316;10.182;2024-03-02T11:27:59;24.53;;;12.67;;
37477;SDS011;23334;54.316;10.182;2024-03-02T11:32:57;18.70;;;11.60;;
37477;SDS011;23334;54.316;10.182;2024-03-02T11:35:26;19.10;;;10.27;;
37477;SDS011;23334;54.316;10.182;2024-03-02T11:37:55;20.37;;;11.97;;
37477;SDS011;23334;54.316;10.182;2024-03-02T11:40:26;18.17;;;11.30;;
37477;SDS011;23334;54.316;10.182;2024-03-02T11:42:52;23.10;;;11.47;;
37477;SDS011;23334;54.316;10.182;2024-03-02T11:45:27;18.33;;;11.43;;
37477;SDS011;23334;54.316;10.182;2024-03-02T11:47:54;20.80;;;12.07;;
37477;SDS011;23334;54.316;10.182;2024-03-02T11:50:35;19.50;;;11.70;;
37477;SDS011;23334;54.316;10.182;2024-03-02T11:53:05;19.63;;;11.37;;
37477;SDS011;23334;54.316;10.182;2024-03-02T11:55:33;24.73;;;12.67;;
37477;SDS011;23334;54.316;10.182;2024-03-02T11:58:01;23.40;;;11.77;;
37477;SDS011;23334;54.316;10.182;2024-03-02T12:00:27;23.13;;;11.83;;
37477;SDS011;23334;54.316;10.182;2024-03-02T12:03:06;19.97;;;11.80;;
37477;SDS011;23334;54.316;10.182;2024-03-02T12:05:32;19.00;;;11.87;;
37477;SDS011;23334;54.316;10.182;2024-03-02T12:08:00;19.57;;;11.30;;
37477;SDS011;23334;54.316;10.182;2024-03-02T12:10:27;18.00;;;11.50;;
37477;SDS011;23334;54.316;10.182;2024-03-02T12:15:29;21.90;;;11.00;;
37477;SDS011;23334;54.316;10.182;2024-03-02T12:17:55;19.40;;;11.30;;
37477;SDS011;23334;54.316;10.182;2024-03-02T12:20:22;18.60;;;10.60;;
37477;SDS011;23334;54.316;10.182;2024-03-02T12:22:49;22.87;;;11.07;;
37477;SDS011;23334;54.316;10.182;2024-03-02T12:25:15;16.37;;;11.00;;
37477;SDS011;23334;54.316;10.182;2024-03-02T12:27:41;19.50;;;11.80;;
37477;SDS011;23334;54.316;10.182;2024-03-02T12:30:07;18.17;;;11.03;;
37477;SDS011;23334;54.316;10.182;2024-03-02T12:32:35;20.20;;;11.07;;
37477;SDS011;23334;54.316;10.182;2024-03-02T12:35:01;17.10;;;11.10;;
37477;SDS011;23334;54.316;10.182;2024-03-02T12:37:27;18.90;;;11.43;;
37477;SDS011;23334;54.316;10.182;2024-03-02T12:39:53;19.97;;;11.87;;
37477;SDS011;23334;54.316;10.182;2024-03-02T12:42:19;22.97;;;11.90;;
37477;SDS011;23334;54.316;10.182;2024-03-02T12:44:45;22.03;;;12.40;;
37477;SDS011;23334;54.316;10.182;2024-03-02T12:47:11;17.70;;;12.00;;
37477;SDS011;23334;54.316;10.182;2024-03-02T12:49:39;19.30;;;11.80;;
37477;SDS011;23334;54.316;10.182;2024-03-02T12:52:06;19.50;;;11.97;;
37477;SDS011;23334;54.316;10.182;2024-03-02T12:54:32;19.73;;;11.30;;
37477;SDS011;23334;54.316;10.182;2024-03-02T12:56:58;19.60;;;11.53;;
37477;SDS011;23334;54.316;10.182;2024-03-02T12:59:24;22.63;;;11.73;;
37477;SDS011;23334;54.316;10.182;2024-03-02T13:01:52;19.47;;;11.63;;
37477;SDS011;23334;54.316;10.182;2024-03-02T13:04:21;19.87;;;11.77;;
37477;SDS011;23334;54.316;10.182;2024-03-02T13:06:48;21.40;;;11.80;;
37477;SDS011;23334;54.316;10.182;2024-03-02T13:09:14;21.50;;;11.50;;
37477;SDS011;23334;54.316;10.182;2024-03-02T13:11:41;22.97;;;12.30;;
37477;SDS011;23334;54.316;10.182;2024-03-02T13:14:07;21.63;;;11.70;;
37477;SDS011;23334;54.316;10.182;2024-03-02T13:16:37;19.63;;;12.00;;
37477;SDS011;23334;54.316;10.182;2024-03-02T13:19:06;24.37;;;13.90;;
37477;SDS011;23334;54.316;10.182;2024-03-02T13:21:33;24.27;;;13.53;;
37477;SDS011;23334;54.316;10.182;2024-03-02T13:23:58;22.17;;;12.77;;
37477;SDS011;23334;54.316;10.182;2024-03-02T13:26:25;20.50;;;12.80;;
37477;SDS011;23334;54.316;10.182;2024-03-02T13:28:50;22.97;;;12.67;;
37477;SDS011;23334;54.316;10.182;2024-03-02T13:31:16;20.77;;;12.33;;
37477;SDS011;23334;54.316;10.182;2024-03-02T13:33:42;23.23;;;12.57;;
37477;SDS011;23334;54.316;10.182;2024-03-02T13:36:08;23.70;;;12.73;;
37477;SDS011;23334;54.316;10.182;2024-03-02T13:38:34;21.03;;;11.90;;
37477;SDS011;23334;54.316;10.182;2024-03-02T13:41:01;24.20;;;14.13;;
37477;SDS011;23334;54.316;10.182;2024-03-02T13:43:27;20.83;;;13.63;;
37477;SDS011;23334;54.316;10.182;2024-03-02T13:45:52;21.10;;;13.07;;
37477;SDS011;23334;54.316;10.182;2024-03-02T13:48:19;21.73;;;13.40;;
37477;SDS011;23334;54.316;10.182;2024-03-02T13:50:46;22.50;;;12.57;;
37477;SDS011;23334;54.316;10.182;2024-03-02T13:53:12;22.07;;;12.50;;
37477;SDS011;23334;54.316;10.182;2024-03-02T13:55:38;21.50;;;11.93;;
37477;SDS011;23334;54.316;10.182;2024-03-02T13:58:04;22.33;;;12.40;;
37477;SDS011;23334;54.316;10.182;2024-03-02T14:00:30;25.43;;;11.57;;
37477;SDS011;23334;54.316;10.182;2024-03-02T14:02:55;20.93;;;11.73;;
37477;SDS011;23334;54.316;10.182;2024-03-02T14:05:21;18.80;;;11.80;;
37477;SDS011;23334;54.316;10.182;2024-03-02T14:07:47;28.53;;;13.70;;
37477;SDS011;23334;54.316;10.182;2024-03-02T14:10:13;22.33;;;11.77;;
37477;SDS011;23334;54.316;10.182;2024-03-02T14:12:40;22.47;;;11.07;;
37477;SDS011;23334;54.316;10.182;2024-03-02T14:15:06;20.37;;;11.60;;
37477;SDS011;23334;54.316;10.182;2024-03-02T14:17:32;17.23;;;11.23;;